Time;durP1;ratioP1;P1;durP2;ratioP2;P2;SDS_P1;SDS_P2;PMS_P1;PMS_P2;Temp;Humidity;BMP_temperature;BMP_pressure;BME280_temperature;BME280_humidity;BME280_pressure;Samples;Min_cycle;Max_cycle;Signal;HPM_P1;HPM_P2
2022/09/26 00:01:38;;;;;;;8.20;3.50;;;9.70;99.90;;;-144.05;76.60;125687.94;5038838;28;20033;-80
2022/09/26 00:04:18;;;;;;;3.35;2.63;;;9.70;99.90;;;-144.05;76.41;125687.94;5038192;28;20029;-81
2022/09/26 00:06:44;;;;;;;6.95;3.00;;;9.70;99.90;;;-144.05;76.55;125687.94;5036700;28;20033;-81
2022/09/26 00:09:12;;;;;;;4.78;2.78;;;9.70;99.90;;;-144.05;76.86;125687.94;5038940;28;20029;-80
2022/09/26 00:11:40;;;;;;;6.78;2.28;;;9.70;99.90;;;-144.05;76.63;125687.94;5039195;28;20129;-81
2022/09/26 00:14:23;;;;;;;5.65;2.90;;;9.60;99.90;;;-144.05;76.59;125687.94;5038542;28;20059;-79
2022/09/26 00:16:50;;;;;;;5.03;2.63;;;9.60;99.90;;;-144.05;76.56;125687.94;5037497;28;20103;-79
2022/09/26 00:19:17;;;;;;;6.22;2.45;;;9.60;99.90;;;-144.05;76.84;125687.94;5039255;28;20476;-81
2022/09/26 00:21:43;;;;;;;7.10;2.80;;;9.60;99.90;;;-144.05;77.10;125687.94;5038168;28;20025;-80
2022/09/26 00:24:10;;;;;;;3.78;2.80;;;9.60;99.90;;;-144.05;77.17;125687.94;5037889;28;20036;-81
2022/09/26 00:26:37;;;;;;;5.30;2.90;;;9.60;99.90;;;-144.05;77.11;125687.94;5038268;28;20431;-80
2022/09/26 00:29:11;;;;;;;8.48;2.97;;;9.60;99.90;;;-144.05;77.34;125687.94;5039409;28;20476;-81
2022/09/26 00:31:43;;;;;;;8.93;3.00;;;9.70;99.90;;;-144.05;77.46;125687.94;5044497;28;20041;-79
2022/09/26 00:34:13;;;;;;;5.63;2.97;;;9.70;99.90;;;-144.05;76.76;125687.94;5042451;28;20029;-79
2022/09/26 00:36:39;;;;;;;7.32;2.90;;;9.70;99.90;;;-144.05;76.50;125687.94;5038996;28;20036;-80
2022/09/26 00:39:10;;;;;;;5.10;2.88;;;9.70;99.90;;;-144.05;76.59;125687.94;5038950;28;20033;-81
2022/09/26 00:41:37;;;;;;;7.95;2.58;;;9.80;99.90;;;-144.05;76.75;125687.94;5039813;28;20025;-80
2022/09/26 00:44:53;;;;;;;6.47;3.38;;;9.70;99.90;;;-144.05;76.76;125687.94;5039945;28;20072;-81
2022/09/26 00:47:51;;;;;;;5.75;2.50;;;9.70;99.90;;;-144.05;76.90;125687.94;5038423;28;20336;-80
2022/09/26 00:50:33;;;;;;;9.77;3.85;;;9.60;99.90;;;-144.05;77.10;125687.94;5037559;28;20059;-82
2022/09/26 00:53:13;;;;;;;8.82;3.40;;;9.60;99.90;;;-144.05;77.21;125687.94;5039034;28;20025;-81
2022/09/26 00:55:51;;;;;;;6.45;3.05;;;9.50;99.90;;;-144.05;77.46;125687.94;5037187;28;20033;-81
2022/09/26 00:58:47;;;;;;;9.23;2.92;;;9.50;99.90;;;-144.05;77.57;125687.94;5038915;28;20113;-80
2022/09/26 01:01:13;;;;;;;8.10;3.22;;;9.50;99.90;;;-144.05;77.54;125687.94;5038510;28;20120;-81
2022/09/26 01:03:45;;;;;;;10.18;3.45;;;9.50;99.90;;;-144.05;77.46;125687.94;5038058;28;20362;-79
2022/09/26 01:06:12;;;;;;;8.10;3.60;;;9.50;99.90;;;-144.05;77.51;125687.94;5038696;28;20033;-81
2022/09/26 01:08:50;;;;;;;6.30;2.92;;;9.50;99.90;;;-144.05;77.72;125687.94;5038022;28;20041;-80
2022/09/26 01:11:16;;;;;;;10.63;3.63;;;9.50;99.90;;;-144.05;77.60;125687.94;5037349;28;20073;-80
2022/09/26 01:13:44;;;;;;;4.28;2.67;;;9.70;99.90;;;-144.05;77.28;125687.94;5035220;28;20029;-80
2022/09/26 01:16:09;;;;;;;6.32;2.85;;;9.70;99.90;;;-144.05;77.04;125687.94;5054785;23;20113;-79
2022/09/26 01:18:36;;;;;;;7.05;3.30;;;9.70;99.90;;;-144.05;76.86;125687.94;5032050;28;20103;-79
2022/09/26 01:21:47;;;;;;;4.57;3.05;;;9.70;99.90;;;-144.05;76.97;125687.94;5033209;28;20558;-78
2022/09/26 01:24:48;;;;;;;7.32;3.28;;;9.80;99.90;;;-144.05;76.40;125687.94;5033127;28;20025;-81
2022/09/26 01:27:49;;;;;;;9.02;2.88;;;9.80;99.90;;;-144.05;75.98;125687.94;5031665;28;20029;-78
2022/09/26 01:30:41;;;;;;;6.10;3.38;;;9.90;99.90;;;-144.05;75.96;125687.94;5033291;28;20038;-78
2022/09/26 01:33:52;;;;;;;7.75;4.03;;;9.90;99.90;;;-144.05;76.12;125687.94;5031501;28;20496;-79
2022/09/26 01:37:21;;;;;;;8.25;3.22;;;10.00;99.90;;;-144.05;75.52;125687.94;5032986;28;20046;-78
2022/09/26 01:40:23;;;;;;;7.03;2.53;;;10.10;99.90;;;-144.05;75.58;125687.94;5032417;28;20041;-79
2022/09/26 01:43:10;;;;;;;5.20;2.80;;;10.20;99.90;;;-144.05;75.42;125687.94;5031726;28;20025;-78
2022/09/26 01:45:59;;;;;;;8.77;2.92;;;10.20;99.90;;;-144.05;75.37;125687.94;5032651;28;20025;-79
2022/09/26 01:48:49;;;;;;;10.30;3.42;;;10.20;99.90;;;-144.05;75.14;125687.94;5032427;28;20119;-79
2022/09/26 01:51:28;;;;;;;8.43;3.25;;;10.30;99.90;;;-144.05;75.15;125687.94;5047478;28;20033;-78
2022/09/26 01:54:17;;;;;;;7.47;3.30;;;10.30;99.90;;;-144.05;75.01;125687.94;5030978;28;20037;-79
2022/09/26 01:56:52;;;;;;;11.95;3.10;;;10.30;99.90;;;-144.05;74.65;125687.94;5031083;28;20026;-78
2022/09/26 01:59:35;;;;;;;6.38;3.30;;;10.30;99.90;;;-144.05;74.89;125687.94;5032593;28;20049;-81
2022/09/26 02:02:18;;;;;;;5.90;3.38;;;10.40;99.90;;;-144.05;74.86;125687.94;5031377;28;20124;-79
2022/09/26 02:04:52;;;;;;;5.45;2.80;;;10.40;99.90;;;-144.05;74.93;125687.94;5032553;28;20061;-79
2022/09/26 02:07:41;;;;;;;6.93;3.10;;;10.40;99.90;;;-144.05;74.90;125687.94;5032283;28;20025;-81
2022/09/26 02:10:23;;;;;;;8.32;3.70;;;10.40;99.90;;;-144.05;75.13;125687.94;5032834;28;20084;-78
2022/09/26 02:13:02;;;;;;;9.07;3.70;;;10.40;99.90;;;-144.05;75.20;125687.94;5029707;28;20079;-78
2022/09/26 02:15:35;;;;;;;8.68;3.08;;;10.40;99.90;;;-144.05;74.86;125687.94;5030974;28;20396;-79
2022/09/26 02:18:20;;;;;;;10.68;4.35;;;10.40;99.90;;;-144.05;75.05;125687.94;5031113;28;20052;-78
2022/09/26 02:21:16;;;;;;;8.63;3.65;;;10.50;99.90;;;-144.05;74.38;125687.94;5029818;28;20131;-79
2022/09/26 02:23:42;;;;;;;5.95;3.03;;;10.50;99.90;;;-144.05;74.53;125687.94;5034114;28;20056;-78
2022/09/26 02:26:08;;;;;;;7.63;3.35;;;10.60;99.90;;;-144.05;74.52;125687.94;5036124;28;20061;-78
2022/09/26 02:28:35;;;;;;;9.45;3.42;;;10.60;99.90;;;-144.05;74.30;125687.94;5054114;28;20022;-77
2022/09/26 02:31:07;;;;;;;8.88;3.15;;;10.60;99.90;;;-144.05;73.98;125687.94;5054537;28;20033;-80
2022/09/26 02:33:35;;;;;;;7.95;3.70;;;10.70;99.90;;;-144.05;74.16;125687.94;5044613;28;20105;-78
2022/09/26 02:36:07;;;;;;;7.32;3.92;;;10.70;99.90;;;-144.05;74.30;125687.94;5037432;28;20025;-80
2022/09/26 02:38:35;;;;;;;9.18;3.72;;;10.70;99.90;;;-144.05;74.23;125687.94;5037062;28;20036;-79
2022/09/26 02:41:51;;;;;;;6.68;4.03;;;10.70;99.90;;;-144.05;74.07;125687.94;5036793;28;20034;-79
2022/09/26 02:44:37;;;;;;;11.15;4.32;;;10.70;99.90;;;-144.05;74.44;125687.94;5035283;28;20029;-82
2022/09/26 02:47:25;;;;;;;;;;;10.70;99.90;;;-144.05;73.62;125687.94;5036755;28;20031;-78
2022/09/26 02:50:53;;;;;;;8.93;4.88;;;10.70;99.90;;;-144.05;74.68;125687.94;5036461;28;20011;-79
2022/09/26 02:54:42;;;;;;;7.80;4.93;;;10.70;99.90;;;-144.05;75.15;125687.94;5036703;28;20126;-79
2022/09/26 02:57:44;;;;;;;12.27;5.47;;;10.70;99.90;;;-144.05;74.65;125687.94;5036457;28;20026;-78
2022/09/26 03:00:23;;;;;;;10.63;5.15;;;10.70;99.90;;;-144.05;74.86;125687.94;5034953;28;20029;-81
2022/09/26 03:03:11;;;;;;;10.32;5.80;;;10.70;99.90;;;-144.05;75.32;125687.94;5036507;28;20091;-81
2022/09/26 03:05:44;;;;;;;10.15;5.72;;;10.70;99.90;;;-144.05;74.90;125687.94;5034775;28;20057;-80
2022/09/26 03:08:22;;;;;;;11.70;5.75;;;10.70;99.90;;;-144.05;74.81;125687.94;5036589;28;20048;-80
2022/09/26 03:10:51;;;;;;;11.13;6.25;;;10.70;99.90;;;-144.05;75.05;125687.94;5036660;28;20052;-80
2022/09/26 03:13:20;;;;;;;11.23;6.22;;;10.70;99.90;;;-144.05;75.21;125687.94;5036428;28;20033;-79
2022/09/26 03:15:55;;;;;;;10.45;6.68;;;10.70;99.90;;;-144.05;75.18;125687.94;5036220;28;20562;-79
2022/09/26 03:18:34;;;;;;;15.30;7.95;;;10.70;99.90;;;-144.05;75.72;125687.94;5035020;28;20424;-80
2022/09/26 03:21:00;;;;;;;14.25;7.65;;;10.70;99.90;;;-144.05;75.67;125687.94;5037053;28;20096;-80
2022/09/26 03:23:28;;;;;;;12.68;7.32;;;10.70;99.90;;;-144.05;75.67;125687.94;5035134;28;20434;-79
2022/09/26 03:26:12;;;;;;;11.65;6.22;;;10.70;99.90;;;-144.05;75.68;125687.94;5036602;28;20098;-79
2022/09/26 03:28:39;;;;;;;13.30;6.43;;;10.60;99.90;;;-144.05;75.79;125687.94;5036571;28;20458;-80
2022/09/26 03:31:06;;;;;;;10.25;6.97;;;10.60;99.90;;;-144.05;75.91;125687.94;5037938;28;20030;-78
2022/09/26 03:33:33;;;;;;;14.43;7.32;;;10.60;99.90;;;-144.05;75.70;125687.94;5037781;28;20382;-79
2022/09/26 03:36:04;;;;;;;13.77;7.55;;;10.60;99.90;;;-144.05;75.83;125687.94;5036515;28;20041;-80
2022/09/26 03:38:29;;;;;;;12.32;7.18;;;10.60;99.90;;;-144.05;75.43;125687.94;5037581;28;20037;-80
2022/09/26 03:40:57;;;;;;;14.43;7.70;;;10.60;99.90;;;-144.05;75.48;125687.94;5037744;28;20603;-80
2022/09/26 03:43:23;;;;;;;12.13;8.35;;;10.60;99.90;;;-144.05;75.98;125687.94;5042884;28;20031;-80
2022/09/26 03:45:50;;;;;;;16.02;8.07;;;10.60;99.90;;;-144.05;76.44;125687.94;5048327;28;20021;-80
2022/09/26 03:48:16;;;;;;;15.20;7.43;;;10.60;99.90;;;-144.05;76.49;125687.94;5048356;28;20055;-80
2022/09/26 03:50:43;;;;;;;13.30;7.32;;;10.60;99.90;;;-144.05;76.76;125687.94;5046962;28;20040;-79
2022/09/26 03:53:09;;;;;;;12.27;8.20;;;10.60;99.90;;;-144.05;76.49;125687.94;5049416;28;20543;-79
2022/09/26 03:55:35;;;;;;;22.35;8.20;;;10.60;99.90;;;-144.05;76.46;125687.94;5048459;28;20034;-80
2022/09/26 03:58:01;;;;;;;15.30;7.28;;;10.60;99.90;;;-144.05;76.43;125687.94;5048178;28;20036;-79
2022/09/26 04:00:27;;;;;;;14.07;7.75;;;10.60;99.90;;;-144.05;76.36;125687.94;5034665;28;20061;-79
2022/09/26 04:02:53;;;;;;;15.85;8.60;;;10.60;99.90;;;-144.05;76.30;125687.94;5033517;28;20427;-78
2022/09/26 04:05:19;;;;;;;10.70;7.00;;;10.60;99.90;;;-144.05;76.50;125687.94;5032263;28;20091;-78
2022/09/26 04:07:46;;;;;;;11.50;6.90;;;10.60;99.90;;;-144.05;76.71;125687.94;5033950;28;20041;-78
2022/09/26 04:10:13;;;;;;;11.75;7.25;;;10.60;99.90;;;-144.05;76.76;125687.94;5049156;28;20091;-78
2022/09/26 04:12:39;;;;;;;13.57;7.30;;;10.60;99.90;;;-144.05;77.16;125687.94;5034030;28;20112;-77
2022/09/26 04:15:07;;;;;;;11.68;7.60;;;10.60;99.90;;;-144.05;77.48;125687.94;5032209;28;20315;-77
2022/09/26 04:17:33;;;;;;;16.35;7.68;;;10.60;99.90;;;-144.05;77.24;125687.94;5033343;28;20465;-78
2022/09/26 04:20:00;;;;;;;12.00;7.35;;;10.50;99.90;;;-144.05;77.63;125687.94;5033521;28;20108;-78
2022/09/26 04:22:26;;;;;;;14.95;8.57;;;10.50;99.90;;;-144.05;77.45;125687.94;5033537;28;20128;-79
2022/09/26 04:24:52;;;;;;;11.68;7.85;;;10.50;99.90;;;-144.05;77.19;125687.94;5033552;28;20029;-79
2022/09/26 04:27:18;;;;;;;14.57;8.38;;;10.50;99.90;;;-144.05;78.01;125687.94;5033736;28;20396;-79
2022/09/26 04:29:45;;;;;;;15.25;9.07;;;10.50;99.90;;;-144.05;77.46;125687.94;5033382;28;20345;-79
2022/09/26 04:32:11;;;;;;;13.55;8.40;;;10.50;99.90;;;-144.05;78.04;125687.94;5033440;28;20029;-79
2022/09/26 04:34:38;;;;;;;12.02;8.32;;;10.50;99.90;;;-144.05;78.09;125687.94;5031999;28;20036;-77
2022/09/26 04:37:05;;;;;;;13.05;8.57;;;10.50;99.90;;;-144.05;77.53;125687.94;5033591;28;20026;-79
2022/09/26 04:39:32;;;;;;;14.32;8.57;;;10.50;99.90;;;-144.05;77.57;125687.94;5032980;28;20033;-79
2022/09/26 04:41:59;;;;;;;15.55;8.93;;;10.50;99.90;;;-144.05;77.69;125687.94;5032868;28;20032;-78
2022/09/26 04:44:25;;;;;;;14.45;8.32;;;10.50;99.90;;;-144.05;77.65;125687.94;5031371;28;20029;-78
2022/09/26 04:46:51;;;;;;;14.20;8.75;;;10.60;99.90;;;-144.05;77.01;125687.94;5032076;28;20025;-77
2022/09/26 04:49:17;;;;;;;13.93;8.82;;;10.60;99.90;;;-144.05;77.66;125687.94;5033017;28;20083;-80
2022/09/26 04:51:43;;;;;;;11.40;9.05;;;10.60;99.90;;;-144.05;77.01;125687.94;5031428;28;20524;-80
2022/09/26 04:54:08;;;;;;;15.82;9.65;;;10.60;99.90;;;-144.05;77.51;125687.94;5032820;28;20025;-79
2022/09/26 04:56:34;;;;;;;18.58;9.75;;;10.60;99.90;;;-144.05;77.56;125687.94;5031957;28;20365;-80
2022/09/26 04:59:01;;;;;;;17.13;9.30;;;10.60;99.90;;;-144.05;77.51;125687.94;5033490;28;20067;-78
2022/09/26 05:01:27;;;;;;;13.15;9.38;;;10.60;99.90;;;-144.05;76.82;125687.94;5033479;28;20040;-79
2022/09/26 05:03:54;;;;;;;15.35;9.07;;;10.60;99.90;;;-144.05;76.75;125687.94;5033126;28;20026;-79
2022/09/26 05:06:20;;;;;;;14.23;9.07;;;10.70;99.90;;;-144.05;76.88;125687.94;5033271;28;20112;-78
2022/09/26 05:08:47;;;;;;;12.45;9.43;;;10.60;99.90;;;-144.05;77.09;125687.94;5031829;28;20061;-77
2022/09/26 05:11:17;;;;;;;13.75;10.05;;;10.60;99.90;;;-144.05;77.26;125687.94;5033137;28;20029;-77
2022/09/26 05:13:43;;;;;;;17.80;9.50;;;10.60;99.90;;;-144.05;77.08;125687.94;5033148;28;20033;-78
2022/09/26 05:16:13;;;;;;;16.52;9.90;;;10.60;99.90;;;-144.05;77.30;125687.94;5032339;28;20052;-79
2022/09/26 05:18:38;;;;;;;13.07;9.82;;;10.60;99.90;;;-144.05;77.54;125687.94;5032531;28;20132;-79
2022/09/26 05:21:06;;;;;;;13.13;9.45;;;10.60;99.90;;;-144.05;76.64;125687.94;5032133;28;20531;-80
2022/09/26 05:26:25;;;;;;;;;;;10.60;99.90;;;-144.05;76.78;125687.94;5033481;28;20072;-78
2022/09/26 05:29:03;;;;;;;13.63;8.85;;;10.60;99.90;;;-144.05;77.06;125687.94;5032649;28;19913;-79
2022/09/26 05:31:33;;;;;;;13.73;9.02;;;10.60;99.90;;;-144.05;76.78;125687.94;5031478;28;20036;-78
2022/09/26 05:33:59;;;;;;;17.95;9.77;;;10.50;99.90;;;-144.05;76.89;125687.94;5031929;28;20079;-80
2022/09/26 05:36:27;;;;;;;15.60;10.00;;;10.50;99.90;;;-144.05;76.27;125687.94;5032034;28;20502;-78
2022/09/26 05:38:53;;;;;;;13.95;8.55;;;10.50;99.90;;;-144.05;76.03;125687.94;5032964;28;20376;-78
2022/09/26 05:41:20;;;;;;;16.48;8.13;;;10.50;99.90;;;-144.05;75.52;125687.94;5031910;28;20021;-78
2022/09/26 05:43:47;;;;;;;14.07;7.82;;;10.60;99.90;;;-144.05;75.72;125687.94;5033347;28;20503;-78
2022/09/26 05:46:15;;;;;;;15.77;7.47;;;10.60;99.90;;;-144.05;74.83;125687.94;5033390;28;20076;-78
2022/09/26 05:48:41;;;;;;;13.43;6.53;;;10.70;99.90;;;-144.05;73.43;125687.94;5047739;28;20026;-80
2022/09/26 05:51:15;;;;;;;12.60;6.90;;;10.70;99.90;;;-144.05;73.54;125687.94;5032808;28;20032;-79
2022/09/26 05:53:44;;;;;;;10.48;6.00;;;10.70;99.90;;;-144.05;73.28;125687.94;5030922;28;20026;-80
2022/09/26 05:56:14;;;;;;;13.52;6.38;;;10.70;99.90;;;-144.05;72.84;125687.94;5032112;28;20172;-79
2022/09/26 05:58:40;;;;;;;10.63;6.30;;;10.80;99.90;;;-144.05;72.66;125687.94;5031252;28;20061;-79
2022/09/26 06:01:14;;;;;;;6.68;5.13;;;10.70;99.90;;;-144.05;72.29;125687.94;5035337;28;20053;-79
2022/09/26 06:03:46;;;;;;;13.27;5.50;;;10.80;99.90;;;-144.05;72.33;125687.94;5034943;28;20100;-79
2022/09/26 06:06:18;;;;;;;9.15;5.95;;;10.80;99.90;;;-144.05;72.63;125687.94;5037347;28;20497;-79
2022/09/26 06:08:46;;;;;;;12.07;6.10;;;10.90;99.90;;;-144.05;72.47;125687.94;5035063;28;20453;-81
2022/09/26 06:11:17;;;;;;;10.55;5.05;;;10.80;99.90;;;-144.05;71.47;125687.94;5037023;28;20025;-79
2022/09/26 06:13:45;;;;;;;9.60;4.85;;;10.90;99.90;;;-144.05;71.03;125687.94;5036914;28;20104;-79
2022/09/26 06:16:19;;;;;;;11.32;5.25;;;10.90;99.90;;;-144.05;71.00;125687.94;5036398;28;20049;-78
2022/09/26 06:18:49;;;;;;;9.15;4.68;;;11.00;99.90;;;-144.05;70.70;125687.94;5035063;28;20025;-78
2022/09/26 06:21:18;;;;;;;14.50;5.30;;;11.10;99.90;;;-144.05;70.63;125687.94;5034393;28;20048;-78
2022/09/26 06:23:44;;;;;;;10.40;5.30;;;11.20;99.90;;;-144.05;70.38;125687.94;5034922;28;20373;-79
2022/09/26 06:26:24;;;;;;;9.70;4.95;;;11.30;99.90;;;-144.05;68.64;125687.94;5034204;28;20032;-80
2022/09/26 06:28:59;;;;;;;9.07;5.32;;;11.40;99.90;;;-144.05;68.94;125687.94;5035632;28;20029;-77
2022/09/26 06:31:27;;;;;;;10.25;5.07;;;11.60;99.90;;;-144.05;68.63;125687.94;5035206;28;20028;-77
2022/09/26 06:33:54;;;;;;;9.05;4.78;;;11.60;99.90;;;-144.05;67.89;125687.94;5035455;28;20034;-77
2022/09/26 06:36:24;;;;;;;14.35;5.85;;;11.80;99.90;;;-144.05;67.45;125687.94;5035404;28;20605;-78
2022/09/26 06:38:52;;;;;;;12.68;5.35;;;11.90;99.90;;;-144.05;67.83;125687.94;5035407;28;20033;-80
2022/09/26 06:41:18;;;;;;;8.13;4.43;;;11.90;99.90;;;-144.05;68.12;125687.94;5034200;28;20029;-80
2022/09/26 06:43:46;;;;;;;8.23;4.50;;;11.90;99.90;;;-144.05;66.81;125687.94;5034110;28;20115;-79
2022/09/26 06:46:14;;;;;;;6.53;4.55;;;12.00;99.90;;;-144.05;66.16;125687.94;5046493;28;20028;-78
2022/09/26 06:48:41;;;;;;;10.68;4.88;;;12.00;99.90;;;-144.05;65.56;125687.94;5051144;28;20021;-80
2022/09/26 06:51:08;;;;;;;10.25;4.38;;;12.10;99.90;;;-144.05;65.92;125687.94;5049903;28;20457;-79
2022/09/26 06:53:34;;;;;;;8.65;4.05;;;12.00;99.90;;;-144.05;65.33;125687.94;5037570;28;20034;-79
2022/09/26 06:56:01;;;;;;;5.72;3.65;;;12.00;99.90;;;-144.05;64.98;125687.94;5035353;28;20034;-80
2022/09/26 06:58:27;;;;;;;7.47;3.75;;;12.10;99.90;;;-144.05;65.31;125687.94;5036814;28;20097;-80
2022/09/26 07:00:53;;;;;;;9.57;3.90;;;12.20;99.90;;;-144.05;64.74;125687.94;5037185;28;20429;-80
2022/09/26 07:03:19;;;;;;;7.93;4.03;;;12.20;99.90;;;-144.05;65.14;125687.94;5037417;28;20033;-79
2022/09/26 07:05:45;;;;;;;6.10;3.55;;;12.20;99.90;;;-144.05;64.84;125687.94;5035810;28;20029;-79
2022/09/26 07:08:12;;;;;;;8.95;4.15;;;12.20;99.90;;;-144.05;65.24;125687.94;5035068;28;20038;-78
2022/09/26 07:10:38;;;;;;;9.70;4.38;;;12.20;99.90;;;-144.05;65.58;125687.94;5034008;28;20048;-80
2022/09/26 07:13:09;;;;;;;12.05;4.47;;;12.10;99.90;;;-144.05;65.25;125687.94;5033651;28;20029;-78
2022/09/26 07:15:36;;;;;;;10.40;4.20;;;12.10;99.90;;;-144.05;64.92;125687.94;5056591;23;20122;-82
2022/09/26 07:18:05;;;;;;;8.30;3.50;;;12.00;99.90;;;-144.05;64.68;125687.94;5034486;28;20112;-80
2022/09/26 07:20:39;;;;;;;7.78;4.35;;;12.00;99.90;;;-144.05;65.13;125687.94;5036757;28;20492;-82
2022/09/26 07:23:09;;;;;;;5.72;3.33;;;12.00;99.90;;;-144.05;65.07;125687.94;5035580;28;20024;-82
2022/09/26 07:25:38;;;;;;;7.53;4.15;;;12.00;99.90;;;-144.05;65.28;125687.94;5033777;28;20037;-81
2022/09/26 07:28:08;;;;;;;13.18;4.65;;;12.00;99.90;;;-144.05;65.11;125687.94;5033423;28;20033;-80
2022/09/26 07:30:34;;;;;;;8.15;3.75;;;12.00;99.90;;;-144.05;64.21;125687.94;5033403;28;20407;-80
2022/09/26 07:33:03;;;;;;;5.97;3.15;;;12.00;99.90;;;-144.05;64.24;125687.94;5034273;28;20055;-80
2022/09/26 07:35:36;;;;;;;6.85;3.03;;;12.00;99.90;;;-144.05;64.04;125687.94;5033788;28;20104;-81
2022/09/26 07:38:03;;;;;;;8.32;3.22;;;12.00;99.90;;;-144.05;63.89;125687.94;5032793;28;20030;-80
2022/09/26 07:40:30;;;;;;;4.65;2.85;;;12.10;99.90;;;-144.05;64.03;125687.94;5032309;28;20036;-80
2022/09/26 07:43:00;;;;;;;5.43;3.25;;;12.10;99.90;;;-144.05;64.96;125687.94;5033811;28;20135;-78
2022/09/26 07:50:59;;;;;;;9.57;2.85;;;12.10;99.90;;;-144.05;64.25;125687.94;5033631;28;20096;-81
2022/09/26 07:53:27;;;;;;;6.10;2.53;;;12.10;99.90;;;-144.05;64.82;125687.94;5033474;28;20083;-79
2022/09/26 07:56:07;;;;;;;8.23;3.00;;;12.10;99.90;;;-144.05;64.35;125687.94;5033047;28;20507;-77
2022/09/26 07:58:37;;;;;;;8.23;2.70;;;12.20;99.90;;;-144.05;63.81;125687.94;5033201;28;20117;-78
2022/09/26 08:01:05;;;;;;;6.13;2.55;;;12.20;99.90;;;-144.05;63.38;125687.94;5031677;28;20033;-80
2022/09/26 08:03:31;;;;;;;4.57;2.45;;;12.30;99.90;;;-144.05;63.86;125687.94;5032883;28;20022;-76
2022/09/26 08:06:01;;;;;;;8.48;2.60;;;12.30;99.90;;;-144.05;62.86;125687.94;5031439;28;20033;-77
2022/09/26 08:08:29;;;;;;;6.63;2.30;;;12.40;99.90;;;-144.05;63.12;125687.94;5031499;28;20048;-78
2022/09/26 08:10:57;;;;;;;6.00;2.95;;;12.30;99.90;;;-144.05;63.09;125687.94;5031274;28;20174;-79
2022/09/26 08:13:27;;;;;;;3.70;2.05;;;12.50;99.90;;;-144.05;62.79;125687.94;5031465;28;20033;-79
2022/09/26 08:15:53;;;;;;;7.35;2.67;;;12.40;99.90;;;-144.05;62.59;125687.94;5032392;28;20113;-79
2022/09/26 08:18:19;;;;;;;7.32;3.08;;;12.40;99.90;;;-144.05;61.93;125687.94;5031657;28;20033;-80
2022/09/26 08:20:46;;;;;;;5.43;2.00;;;12.50;99.90;;;-144.05;62.87;125687.94;5032540;28;20112;-80
2022/09/26 08:23:16;;;;;;;6.00;2.10;;;12.40;99.90;;;-144.05;63.10;125687.94;5032265;28;20392;-80
2022/09/26 08:25:43;;;;;;;6.30;2.40;;;12.40;99.90;;;-144.05;62.56;125687.94;5032609;28;20480;-80
2022/09/26 08:28:11;;;;;;;3.90;2.13;;;12.30;99.90;;;-144.05;62.87;125687.94;5032226;28;20503;-78
2022/09/26 08:30:43;;;;;;;4.55;2.10;;;12.30;99.90;;;-144.05;63.79;125687.94;5032316;28;20048;-80
2022/09/26 08:33:11;;;;;;;9.15;2.90;;;12.30;99.90;;;-144.05;63.87;125687.94;5032220;28;20026;-80
2022/09/26 08:35:38;;;;;;;7.47;2.65;;;12.20;99.90;;;-144.05;64.83;125687.94;5032044;28;20095;-78
2022/09/26 08:38:09;;;;;;;4.85;2.55;;;12.10;99.90;;;-144.05;65.40;125687.94;5032236;28;20029;-79
2022/09/26 08:41:19;;;;;;;6.70;2.53;;;12.00;99.90;;;-144.05;65.75;125687.94;5033346;28;20056;-82
2022/09/26 08:44:25;;;;;;;6.60;1.95;;;11.90;99.90;;;-144.05;66.73;125687.94;5034699;28;20044;-82
2022/09/26 08:47:03;;;;;;;3.15;2.25;;;11.90;99.90;;;-144.05;66.10;125687.94;5034085;28;20033;-79
2022/09/26 08:49:49;;;;;;;5.18;2.50;;;11.90;99.90;;;-144.05;66.32;125687.94;5031920;28;20033;-83
2022/09/26 08:52:47;;;;;;;4.43;2.30;;;11.90;99.90;;;-144.05;66.92;125687.94;5033244;28;20032;-81
2022/09/26 08:55:26;;;;;;;5.40;2.08;;;11.90;99.90;;;-144.05;66.21;125687.94;5031765;28;20064;-79
2022/09/26 08:58:04;;;;;;;8.25;2.67;;;11.90;99.90;;;-144.05;67.58;125687.94;5033108;28;20481;-82
2022/09/26 09:00:39;;;;;;;9.27;2.75;;;11.90;99.90;;;-144.05;67.30;125687.94;5032832;28;20097;-80
2022/09/26 09:03:28;;;;;;;5.63;2.53;;;11.80;99.90;;;-144.05;66.83;125687.94;5030944;28;20120;-79
2022/09/26 09:06:06;;;;;;;9.43;2.30;;;11.80;99.90;;;-144.05;68.35;125687.94;5032170;28;20048;-81
2022/09/26 09:08:44;;;;;;;5.07;2.67;;;11.80;99.90;;;-144.05;68.62;125687.94;5032269;28;20112;-80
2022/09/26 09:11:40;;;;;;;7.55;2.25;;;11.70;99.90;;;-144.05;68.94;125687.94;5032293;28;20040;-80
2022/09/26 09:14:55;;;;;;;5.65;2.42;;;11.60;99.90;;;-144.05;70.07;125687.94;5030660;28;20029;-80
2022/09/26 09:18:10;;;;;;;4.68;2.60;;;11.50;99.90;;;-144.05;69.51;125687.94;5027249;28;20042;-78
2022/09/26 09:20:58;;;;;;;7.35;2.70;;;11.50;99.90;;;-144.05;69.67;125687.94;5030540;28;20091;-79
2022/09/26 09:24:11;;;;;;;6.80;2.38;;;11.50;99.90;;;-144.05;69.90;125687.94;5032396;28;20104;-78
2022/09/26 09:27:02;;;;;;;8.43;2.50;;;11.50;99.90;;;-144.05;70.25;125687.94;5033821;28;20084;-77
2022/09/26 09:29:55;;;;;;;4.45;2.28;;;11.50;99.90;;;-144.05;69.99;125687.94;5033806;28;20030;-76
2022/09/26 09:32:40;;;;;;;8.18;2.67;;;11.50;99.90;;;-144.05;70.84;125687.94;5034577;28;20040;-78
2022/09/26 09:35:17;;;;;;;3.55;1.92;;;11.50;99.90;;;-144.05;69.73;125687.94;5037423;28;20035;-78
2022/09/26 09:37:51;;;;;;;4.65;2.38;;;11.50;99.90;;;-144.05;71.25;125687.94;5037049;28;20091;-79
2022/09/26 09:40:38;;;;;;;7.10;2.17;;;11.50;99.90;;;-144.05;71.04;125687.94;5036491;28;20029;-77
2022/09/26 09:43:39;;;;;;;4.47;2.08;;;11.50;99.90;;;-144.05;71.14;125687.94;5037722;28;20036;-77
2022/09/26 09:46:30;;;;;;;3.67;1.92;;;11.50;99.90;;;-144.05;70.53;125687.94;5036280;28;20083;-79
2022/09/26 09:49:22;;;;;;;4.68;2.03;;;11.50;99.90;;;-144.05;71.83;125687.94;5036318;28;20029;-80
2022/09/26 09:52:44;;;;;;;5.15;1.88;;;11.60;99.90;;;-144.05;71.98;125687.94;5033604;28;20046;-78
2022/09/26 09:55:37;;;;;;;8.93;2.20;;;11.60;99.90;;;-144.05;71.58;125687.94;5036504;28;20120;-77
2022/09/26 09:58:23;;;;;;;4.95;2.17;;;11.60;99.90;;;-144.05;71.91;125687.94;5037759;28;20109;-79
2022/09/26 10:01:10;;;;;;;8.70;2.40;;;11.60;99.90;;;-144.05;71.83;125687.94;5038572;28;20026;-79
2022/09/26 10:04:38;;;;;;;5.25;2.38;;;11.60;99.90;;;-144.05;72.78;125687.94;5036340;28;20064;-78
2022/09/26 10:07:05;;;;;;;4.90;2.20;;;11.50;99.90;;;-144.05;72.53;125687.94;5022634;28;20073;-81
2022/09/26 10:09:43;;;;;;;5.10;2.15;;;11.50;99.90;;;-144.05;72.15;125687.94;5035565;28;20577;-81
2022/09/26 10:12:18;;;;;;;4.07;1.90;;;11.60;99.90;;;-144.05;73.41;125687.94;5036523;28;20025;-79
2022/09/26 10:15:06;;;;;;;6.97;1.92;;;11.60;99.90;;;-144.05;72.91;125687.94;5034475;28;20040;-78
2022/09/26 10:17:32;;;;;;;5.10;1.77;;;11.60;99.90;;;-144.05;72.82;125687.94;5035332;28;20041;-79
2022/09/26 10:19:58;;;;;;;6.25;1.67;;;11.60;99.90;;;-144.05;72.71;125687.94;5036519;28;20025;-80
2022/09/26 10:22:50;;;;;;;6.38;2.03;;;11.60;99.90;;;-144.05;74.21;125687.94;5037539;28;20030;-79
2022/09/26 10:25:25;;;;;;;4.45;2.05;;;11.50;99.90;;;-144.05;73.96;125687.94;5035130;28;20041;-79
2022/09/26 10:27:56;;;;;;;2.45;1.60;;;11.60;99.90;;;-144.05;73.69;125687.94;5035941;28;20029;-79
2022/09/26 10:30:32;;;;;;;4.40;2.47;;;11.70;99.90;;;-144.05;73.61;125687.94;5035253;28;20074;-80
2022/09/26 10:33:02;;;;;;;2.63;1.80;;;11.70;99.90;;;-144.05;73.05;125687.94;5034891;28;20055;-79
2022/09/26 10:35:45;;;;;;;4.90;1.80;;;11.80;99.90;;;-144.05;72.76;125687.94;5034830;28;20025;-79
2022/09/26 10:38:27;;;;;;;5.28;1.85;;;11.90;99.90;;;-144.05;72.39;125687.94;5033321;28;20041;-78
2022/09/26 10:41:02;;;;;;;4.35;1.92;;;11.90;99.90;;;-144.05;72.06;125687.94;5035045;28;20369;-77